createdAt,value
2019-01-21T00:03:48.478Z,32.50
2019-01-21T00:10:32.674Z,29.03
2019-01-21T00:17:22.334Z,34.47
2019-01-21T00:24:01.063Z,31.53
2019-01-21T00:30:45.241Z,32.90
2019-01-21T00:37:30.415Z,33.33
2019-01-21T00:44:14.648Z,33.63
2019-01-21T00:50:59.404Z,33.50
2019-01-21T00:57:44.386Z,35.93
2019-01-21T01:04:28.909Z,34.70
2019-01-21T01:11:13.686Z,34.67
2019-01-21T01:17:58.125Z,35.47
2019-01-21T01:24:42.915Z,33.67
2019-01-21T01:31:27.546Z,32.73
2019-01-21T01:38:12.675Z,33.20
2019-01-21T01:44:57.058Z,31.73
2019-01-21T01:51:41.710Z,33.73
2019-01-21T01:58:26.313Z,32.30
2019-01-21T02:05:12.986Z,31.50
2019-01-21T02:11:57.166Z,28.70
2019-01-21T02:18:41.658Z,31.37
2019-01-21T02:25:30.170Z,30.00
2019-01-21T02:32:38.733Z,31.70
2019-01-21T02:40:03.269Z,30.17
2019-01-21T02:46:59.323Z,29.00
2019-01-21T02:54:09.062Z,30.93
2019-01-21T03:01:12.998Z,30.90
2019-01-21T03:08:07.165Z,26.80
2019-01-21T03:15:02.941Z,29.40
2019-01-21T03:21:58.738Z,30.33
2019-01-21T03:30:58.266Z,30.47
2019-01-21T03:40:05.854Z,29.25
2019-01-21T03:47:12.633Z,29.70
2019-01-21T03:54:18.110Z,29.57
2019-01-21T04:01:41.853Z,29.93
2019-01-21T04:08:55.812Z,29.70
2019-01-21T04:15:54.618Z,28.00
2019-01-21T04:22:59.866Z,30.77
2019-01-21T04:29:53.802Z,28.43
2019-01-21T04:38:05.361Z,27.53
2019-01-21T04:44:55.805Z,27.63
2019-01-21T04:51:52.594Z,26.83
2019-01-21T04:59:04.902Z,27.27
2019-01-21T05:06:01.718Z,26.73
2019-01-21T05:15:03.925Z,28.13
2019-01-21T05:22:17.583Z,27.03
2019-01-21T05:31:14.568Z,28.33
2019-01-21T05:38:07.394Z,28.57
2019-01-21T05:45:00.515Z,29.27
2019-01-21T05:54:05.199Z,26.50
2019-01-21T06:01:13.653Z,28.43
2019-01-21T06:08:52.585Z,29.27
2019-01-21T06:17:55.317Z,30.20
2019-01-21T06:25:02.104Z,26.17
2019-01-21T06:34:01.325Z,28.90
2019-01-21T06:41:07.490Z,28.90
2019-01-21T06:48:10.430Z,28.70
2019-01-21T06:55:38.233Z,27.97
2019-01-21T07:02:48.154Z,28.80
2019-01-21T07:09:51.006Z,29.27
2019-01-21T07:17:01.150Z,25.03
2019-01-21T07:23:59.065Z,29.27
2019-01-21T07:30:54.034Z,28.70
2019-01-21T07:37:58.298Z,30.20
2019-01-21T07:46:59.860Z,28.93
2019-01-21T07:53:53.085Z,24.73
2019-01-21T08:00:48.749Z,26.83
2019-01-21T08:08:12.728Z,25.13
2019-01-21T08:19:14.723Z,24.17
2019-01-21T08:26:15.869Z,21.17
2019-01-21T08:33:18.778Z,22.10
2019-01-21T08:40:45.272Z,19.50
2019-01-21T08:47:41.586Z,18.53
2019-01-21T08:54:36.354Z,19.90
2019-01-21T09:01:31.461Z,20.23
2019-01-21T09:08:37.626Z,20.33
2019-01-21T09:16:07.289Z,21.07
2019-01-21T09:24:00.426Z,22.50
2019-01-21T09:31:02.434Z,20.67
2019-01-21T09:42:05.398Z,21.30
2019-01-21T09:48:48.585Z,22.87
2019-01-21T09:55:32.959Z,20.23
2019-01-21T10:02:17.201Z,23.03
2019-01-21T10:09:08.670Z,22.57
2019-01-21T10:16:19.525Z,22.60
2019-01-21T10:23:17.147Z,21.47
2019-01-21T10:30:10.899Z,21.43
2019-01-21T10:37:11.762Z,22.67
2019-01-21T10:44:48.609Z,21.80
2019-01-21T10:51:59.803Z,23.23
2019-01-21T11:00:59.122Z,23.03
2019-01-21T11:08:01.014Z,21.87
2019-01-21T11:14:51.981Z,20.57
2019-01-21T11:21:45.390Z,22.03
2019-01-21T11:28:36.878Z,20.40
2019-01-21T11:35:40.567Z,22.17
2019-01-21T11:42:38.491Z,22.87
2019-01-21T11:50:02.389Z,21.47
2019-01-21T11:57:06.206Z,20.10
2019-01-21T12:04:05.115Z,22.17
2019-01-21T12:11:17.937Z,22.97
2019-01-21T12:18:31.699Z,22.13
2019-01-21T12:25:29.160Z,23.30
2019-01-21T12:32:28.494Z,22.33
2019-01-21T12:40:01.070Z,22.93
2019-01-21T12:46:52.905Z,21.80
2019-01-21T12:53:50.410Z,22.77
2019-01-21T13:00:44.734Z,20.30
2019-01-21T13:07:58.449Z,22.90
2019-01-21T13:14:53.854Z,23.37
2019-01-21T13:21:47.792Z,22.53
2019-01-21T13:28:52.777Z,21.53
2019-01-21T13:37:49.206Z,21.83
2019-01-21T13:44:44.641Z,22.00
2019-01-21T13:51:45.678Z,24.33
2019-01-21T13:58:47.622Z,21.83
2019-01-21T14:07:56.773Z,21.80
2019-01-21T14:14:50.919Z,23.40
2019-01-21T14:23:45.029Z,24.17
2019-01-21T14:30:54.742Z,23.53
2019-01-21T14:38:08.346Z,23.73
2019-01-21T14:45:03.434Z,23.90
2019-01-21T14:52:09.831Z,24.70
2019-01-21T14:59:03.152Z,22.80
2019-01-21T15:08:02.637Z,22.40
2019-01-21T15:16:00.625Z,24.33
2019-01-21T15:23:11.372Z,23.70
2019-01-21T15:32:14.217Z,23.60
2019-01-21T15:39:14.583Z,25.40
2019-01-21T15:48:12.786Z,26.00
2019-01-21T15:55:12.018Z,23.80
2019-01-21T16:02:05.490Z,25.33
2019-01-21T16:09:05.446Z,24.27
2019-01-21T16:16:14.381Z,24.63
2019-01-21T16:25:16.200Z,25.37
2019-01-21T16:32:14.667Z,26.10
2019-01-21T16:41:42.725Z,23.27
2019-01-21T16:48:30.567Z,27.20
2019-01-21T16:55:14.754Z,23.13
2019-01-21T17:01:59.165Z,26.73
2019-01-21T17:08:44.317Z,24.90
2019-01-21T17:15:31.902Z,26.10
2019-01-21T17:22:17.861Z,27.53
2019-01-21T17:29:02.949Z,27.90
2019-01-21T17:35:48.377Z,27.17
2019-01-21T17:42:32.795Z,26.60
2019-01-21T17:49:17.535Z,29.23
2019-01-21T17:56:01.724Z,29.27
2019-01-21T18:02:46.199Z,27.40
2019-01-21T18:09:30.474Z,27.60
2019-01-21T18:16:15.151Z,27.50
2019-01-21T18:30:15.906Z,27.10
2019-01-21T18:37:00.591Z,29.90
2019-01-21T18:43:45.279Z,29.47
2019-01-21T18:50:29.545Z,31.97
2019-01-21T18:57:14.626Z,30.60
2019-01-21T19:03:59.422Z,31.10
2019-01-21T19:10:43.654Z,29.50
2019-01-21T19:17:29.666Z,28.37
2019-01-21T19:24:14.496Z,30.77
2019-01-21T19:30:58.671Z,32.90
2019-01-21T19:37:43.600Z,32.57
2019-01-21T19:44:28.466Z,32.77
2019-01-21T19:51:15.817Z,31.80
2019-01-21T19:58:00.014Z,32.83
2019-01-21T20:04:44.337Z,29.93
2019-01-21T20:11:34.702Z,32.30
2019-01-21T20:18:12.836Z,30.80
2019-01-21T20:24:57.026Z,31.87
2019-01-21T20:31:41.214Z,31.67
2019-01-21T20:38:25.392Z,30.03
2019-01-21T20:45:10.401Z,33.57
2019-01-21T20:51:54.574Z,31.57
2019-01-21T20:58:38.772Z,31.30
2019-01-21T21:05:23.184Z,31.43
2019-01-21T21:12:07.402Z,29.97
2019-01-21T21:18:52.023Z,30.07
2019-01-21T21:25:36.446Z,31.03
2019-01-21T21:32:20.934Z,30.37
2019-01-21T21:39:07.029Z,30.00
2019-01-21T21:45:51.449Z,29.70
2019-01-21T21:52:35.662Z,32.43
2019-01-21T21:59:19.857Z,29.87
2019-01-21T22:06:05.157Z,30.53
2019-01-21T22:12:49.365Z,31.90
2019-01-21T22:19:33.576Z,33.53
2019-01-21T22:26:17.764Z,33.43
2019-01-21T22:33:02.406Z,32.53
2019-01-21T22:39:46.921Z,33.20
2019-01-21T22:46:31.345Z,33.27
2019-01-21T22:53:15.539Z,30.57
2019-01-21T23:00:00.927Z,31.73
2019-01-21T23:06:45.041Z,35.43
2019-01-21T23:13:29.521Z,36.80
2019-01-21T23:20:14.462Z,36.57
2019-01-21T23:26:58.801Z,34.93
2019-01-21T23:33:43.378Z,33.33
2019-01-21T23:40:27.850Z,36.17
2019-01-21T23:47:12.742Z,37.00
2019-01-21T23:53:57.101Z,36.40
